Time;durP1;ratioP1;P1;durP2;ratioP2;P2;SDS_P1;SDS_P2;PMS_P1;PMS_P2;Temp;Humidity;BMP_temperature;BMP_pressure;BME280_temperature;BME280_humidity;BME280_pressure;Samples;Min_cycle;Max_cycle;Signal;HPM_P1;HPM_P2
2023/05/05 00:01:33;;;;;;;6.87;4.30;;;14.30;53.40;;;;;;6185579;23;20475;-85
2023/05/05 00:03:59;;;;;;;9.33;5.50;;;14.20;53.70;;;;;;6184992;23;20413;-85
2023/05/05 00:06:27;;;;;;;8.10;5.27;;;14.20;54.20;;;;;;6184854;23;20448;-85
2023/05/05 00:08:54;;;;;;;9.57;5.40;;;14.10;54.80;;;;;;6186724;23;20417;-85
2023/05/05 00:11:21;;;;;;;10.70;5.10;;;14.10;56.40;;;;;;6185161;23;20524;-84
2023/05/05 00:13:48;;;;;;;9.30;5.60;;;14.10;56.40;;;;;;6184182;23;20969;-84
2023/05/05 00:16:16;;;;;;;9.03;5.60;;;14.00;57.60;;;;;;6184939;23;20881;-84
2023/05/05 00:18:44;;;;;;;14.43;6.10;;;14.00;57.80;;;;;;6196326;23;20885;-85
2023/05/05 00:21:11;;;;;;;9.43;5.53;;;14.10;58.90;;;;;;6185915;23;20441;-84
2023/05/05 00:23:38;;;;;;;10.13;5.90;;;14.00;60.10;;;;;;6184825;23;20496;-84
2023/05/05 00:26:05;;;;;;;10.80;5.97;;;14.00;61.50;;;;;;6184735;23;20795;-85
2023/05/05 00:28:32;;;;;;;8.27;5.77;;;14.00;61.10;;;;;;6186324;23;20500;-85
2023/05/05 00:30:59;;;;;;;9.50;6.00;;;13.80;63.90;;;;;;6195033;23;20482;-85
2023/05/05 00:33:26;;;;;;;10.50;7.03;;;13.80;64.40;;;;;;6184802;23;20500;-84
2023/05/05 00:35:54;;;;;;;12.83;6.73;;;13.60;66.50;;;;;;6184760;23;20412;-84
2023/05/05 00:38:22;;;;;;;15.10;7.47;;;13.60;67.90;;;;;;6185897;23;20464;-85
2023/05/05 00:40:49;;;;;;;9.53;6.73;;;13.40;70.40;;;;;;6185568;23;20409;-85
2023/05/05 00:43:16;;;;;;;13.10;6.90;;;13.30;72.00;;;;;;6184114;23;20417;-84
2023/05/05 00:45:46;;;;;;;12.40;7.27;;;13.20;74.10;;;;;;6184229;23;20496;-84
2023/05/05 00:48:13;;;;;;;9.27;6.60;;;13.10;76.00;;;;;;6185790;23;20401;-85
2023/05/05 00:50:44;;;;;;;9.77;6.40;;;13.10;76.80;;;;;;6185849;23;20480;-85
2023/05/05 00:53:13;;;;;;;10.93;7.00;;;13.10;79.80;;;;;;6184821;23;20722;-84
2023/05/05 00:55:40;;;;;;;11.30;6.20;;;12.90;79.60;;;;;;6184736;23;20417;-84
2023/05/05 00:58:09;;;;;;;12.00;7.30;;;12.80;81.20;;;;;;6185661;23;20449;-84
2023/05/05 01:00:36;;;;;;;13.00;7.33;;;12.80;82.00;;;;;;6185928;23;20412;-84
2023/05/05 01:03:04;;;;;;;10.90;6.97;;;12.80;83.50;;;;;;6184826;23;20500;-84
2023/05/05 01:05:42;;;;;;;15.27;8.00;;;12.90;84.10;;;;;;6184284;23;20905;-84
2023/05/05 01:08:27;;;;;;;9.70;6.80;;;13.00;83.90;;;;;;6195616;23;20415;-84
2023/05/05 01:11:01;;;;;;;10.10;6.80;;;13.10;84.30;;;;;;6195522;23;20424;-84
2023/05/05 01:13:42;;;;;;;12.13;7.10;;;13.00;84.60;;;;;;6184595;23;20402;-84
2023/05/05 01:16:14;;;;;;;11.83;6.97;;;13.10;85.60;;;;;;6184605;23;20736;-84
2023/05/05 01:18:48;;;;;;;11.00;8.10;;;13.00;87.00;;;;;;6186241;23;20484;-84
2023/05/05 01:21:25;;;;;;;13.00;7.77;;;12.90;87.50;;;;;;6185265;23;20397;-84
2023/05/05 01:24:18;;;;;;;12.00;8.00;;;12.70;88.50;;;;;;6183968;23;20396;-84
2023/05/05 01:26:55;;;;;;;11.57;7.50;;;12.60;90.30;;;;;;6185016;23;20429;-84
2023/05/05 01:29:37;;;;;;;12.50;8.27;;;12.60;91.20;;;;;;6185883;23;20476;-84
2023/05/05 01:32:08;;;;;;;12.37;7.53;;;12.70;90.80;;;;;;6184428;23;20421;-84
2023/05/05 01:34:40;;;;;;;10.67;8.30;;;12.60;91.50;;;;;;6183721;23;20424;-84
2023/05/05 01:37:12;;;;;;;15.63;8.33;;;12.60;91.40;;;;;;6185155;23;20484;-84
2023/05/05 01:39:42;;;;;;;13.10;8.00;;;12.50;91.60;;;;;;6186204;23;20409;-84
2023/05/05 01:42:13;;;;;;;12.87;7.90;;;12.40;92.00;;;;;;6184624;23;20500;-84
2023/05/05 01:44:43;;;;;;;13.60;8.20;;;12.40;92.50;;;;;;6185360;23;20397;-84
2023/05/05 01:47:15;;;;;;;8.60;6.97;;;12.20;92.20;;;;;;6186953;23;20421;-84
2023/05/05 01:49:45;;;;;;;10.27;7.50;;;12.10;93.40;;;;;;6188171;23;20397;-84
2023/05/05 01:52:13;;;;;;;10.93;7.87;;;12.10;94.40;;;;;;6195996;23;20447;-84
2023/05/05 01:54:41;;;;;;;12.00;9.77;;;12.00;95.20;;;;;;6185649;23;20504;-84
2023/05/05 01:57:10;;;;;;;10.80;9.53;;;11.90;95.90;;;;;;6187096;23;20409;-84
2023/05/05 01:59:38;;;;;;;13.07;11.83;;;11.90;96.30;;;;;;6197836;23;20409;-84
2023/05/05 02:02:08;;;;;;;13.77;12.30;;;11.90;97.40;;;;;;6186197;23;20467;-84
2023/05/05 02:04:42;;;;;;;17.43;15.93;;;11.90;97.60;;;;;;6186220;23;20811;-84
2023/05/05 02:07:12;;;;;;;15.60;14.10;;;11.80;97.80;;;;;;6186593;23;20884;-84
2023/05/05 02:09:40;;;;;;;14.23;11.63;;;12.00;98.40;;;;;;6187865;23;20404;-84
2023/05/05 02:12:08;;;;;;;14.03;11.30;;;11.90;97.80;;;;;;6186032;23;20445;-84
2023/05/05 02:14:36;;;;;;;12.43;10.03;;;11.90;98.40;;;;;;6185886;23;20413;-84
2023/05/05 02:17:04;;;;;;;16.00;11.10;;;11.90;98.40;;;;;;6186434;23;20491;-84
2023/05/05 02:19:35;;;;;;;14.50;13.10;;;11.80;98.40;;;;;;6187365;23;20445;-84
2023/05/05 02:22:04;;;;;;;17.43;16.03;;;11.80;99.00;;;;;;6186034;23;20394;-84
2023/05/05 02:24:31;;;;;;;17.43;15.93;;;11.80;99.80;;;;;;6185756;23;20842;-84
2023/05/05 02:26:59;;;;;;;18.47;16.90;;;11.90;99.60;;;;;;6186049;23;20454;-84
2023/05/05 02:29:31;;;;;;;15.80;14.30;;;11.90;98.80;;;;;;6187672;23;20416;-84
2023/05/05 02:32:03;;;;;;;26.10;23.70;;;11.80;99.60;;;;;;6185897;23;20441;-85
2023/05/05 02:34:36;;;;;;;48.50;45.40;;;11.90;99.80;;;;;;6185866;23;20492;-84
2023/05/05 02:37:15;;;;;;;23.67;21.80;;;11.90;99.90;;;;;;6186169;23;20401;-84
2023/05/05 02:39:50;;;;;;;29.87;27.30;;;12.00;99.90;;;;;;6187575;23;20488;-84
2023/05/05 02:42:21;;;;;;;29.90;27.90;;;11.90;99.90;;;;;;6186019;23;20401;-84
2023/05/05 02:44:51;;;;;;;39.13;36.67;;;12.00;99.90;;;;;;6185480;23;20401;-84
2023/05/05 02:47:18;;;;;;;43.07;40.67;;;12.10;99.90;;;;;;6186574;23;20412;-84
2023/05/05 02:49:45;;;;;;;41.13;38.63;;;12.20;99.90;;;;;;6187490;23;20435;-85
2023/05/05 02:52:13;;;;;;;41.40;38.80;;;12.30;99.90;;;;;;6185834;23;20471;-84
2023/05/05 02:54:40;;;;;;;71.37;67.50;;;12.50;99.90;;;;;;6185332;23;20487;-85
2023/05/05 02:57:10;;;;;;;120.83;115.63;;;12.70;99.90;;;;;;6185328;23;20893;-85
2023/05/05 02:59:46;;;;;;;99.70;95.10;;;12.70;99.90;;;;;;6187494;23;20447;-85
2023/05/05 03:02:18;;;;;;;124.40;119.40;;;13.00;99.90;;;;;;6185412;23;20873;-84
2023/05/05 03:04:49;;;;;;;76.23;72.57;;;13.00;99.90;;;;;;6185374;23;20949;-84
2023/05/05 03:07:24;;;;;;;61.93;58.57;;;13.00;99.90;;;;;;6185875;23;20484;-84
2023/05/05 03:09:57;;;;;;;72.47;68.60;;;13.00;99.90;;;;;;6187053;23;20485;-84
2023/05/05 03:12:30;;;;;;;67.37;63.40;;;13.00;99.90;;;;;;6195429;23;20496;-84
2023/05/05 03:15:00;;;;;;;158.03;151.10;;;12.90;99.90;;;;;;6185495;23;20429;-84
2023/05/05 03:17:29;;;;;;;118.37;113.20;;;12.80;99.90;;;;;;6186356;23;20436;-84
2023/05/05 03:19:57;;;;;;;163.87;157.37;;;12.70;99.90;;;;;;6187019;23;20421;-83
2023/05/05 03:22:26;;;;;;;125.10;119.83;;;12.80;99.90;;;;;;6185843;23;20417;-84
2023/05/05 03:24:53;;;;;;;116.70;111.57;;;12.80;99.90;;;;;;6185079;23;21040;-84
2023/05/05 03:27:20;;;;;;;202.43;194.37;;;12.80;99.90;;;;;;6186210;23;20413;-85
2023/05/05 03:29:47;;;;;;;216.90;207.87;;;12.90;99.90;;;;;;6186768;23;20452;-85
2023/05/05 03:32:14;;;;;;;360.43;344.33;;;12.90;99.90;;;;;;6184580;23;20441;-83
2023/05/05 03:34:41;;;;;;;269.77;258.53;;;13.10;99.90;;;;;;6184251;23;21012;-85
2023/05/05 03:37:08;;;;;;;252.67;241.67;;;13.20;99.90;;;;;;6185686;23;20492;-84
2023/05/05 03:39:36;;;;;;;255.27;244.27;;;13.10;99.90;;;;;;6186623;23;20449;-85
2023/05/05 03:42:03;;;;;;;171.23;163.57;;;13.10;99.90;;;;;;6185103;23;20972;-84
2023/05/05 03:44:30;;;;;;;69.43;65.97;;;13.00;99.90;;;;;;6185432;23;20423;-84
2023/05/05 03:46:56;;;;;;;63.10;59.80;;;12.90;99.90;;;;;;6185614;23;20423;-85
2023/05/05 03:49:23;;;;;;;94.40;89.93;;;12.80;99.90;;;;;;6186489;23;20496;-84
2023/05/05 03:51:50;;;;;;;91.17;86.23;;;12.60;99.90;;;;;;6185629;23;20443;-85
2023/05/05 03:54:17;;;;;;;78.77;74.57;;;12.50;99.90;;;;;;6185239;23;20413;-85
2023/05/05 03:56:45;;;;;;;99.93;95.23;;;12.30;99.90;;;;;;6185452;23;20496;-84
2023/05/05 03:59:12;;;;;;;173.80;166.50;;;12.20;99.90;;;;;;6186930;23;20495;-94
2023/05/05 04:01:40;;;;;;;275.13;263.10;;;12.00;99.90;;;;;;6196445;23;20783;-84
2023/05/05 04:04:08;;;;;;;327.20;311.93;;;12.00;99.90;;;;;;6184867;23;20416;-85
2023/05/05 04:06:35;;;;;;;394.63;373.80;;;12.00;99.90;;;;;;6195047;23;20502;-85
2023/05/05 04:09:04;;;;;;;478.67;451.80;;;12.10;99.90;;;;;;6186736;23;20452;-84
2023/05/05 04:11:31;;;;;;;482.30;454.37;;;12.30;99.90;;;;;;6185282;23;20437;-84
2023/05/05 04:14:00;;;;;;;513.87;482.87;;;12.30;99.90;;;;;;6194832;23;20413;-84
2023/05/05 04:16:28;;;;;;;542.17;507.17;;;12.40;99.90;;;;;;6195086;23;20420;-86
2023/05/05 04:18:57;;;;;;;547.13;513.70;;;12.50;99.90;;;;;;6186502;23;20441;-85
2023/05/05 04:21:24;;;;;;;549.93;516.77;;;12.60;99.90;;;;;;6195940;23;20416;-85
2023/05/05 04:23:55;;;;;;;545.40;512.67;;;12.90;99.90;;;;;;6194783;23;20441;-85
2023/05/05 04:26:22;;;;;;;544.10;513.33;;;12.90;99.90;;;;;;6194688;23;20416;-85
2023/05/05 04:28:50;;;;;;;526.70;497.33;;;13.00;99.90;;;;;;6186344;23;20909;-86
2023/05/05 04:31:18;;;;;;;479.10;453.53;;;13.10;99.90;;;;;;6185579;23;20436;-85
2023/05/05 04:33:45;;;;;;;442.37;419.83;;;13.20;99.90;;;;;;6185108;23;20424;-86
2023/05/05 04:36:12;;;;;;;478.60;454.40;;;13.20;99.90;;;;;;6185276;23;20452;-85
2023/05/05 04:38:39;;;;;;;434.37;412.17;;;13.30;99.90;;;;;;6186197;23;20416;-86
2023/05/05 04:41:06;;;;;;;396.77;378.17;;;13.20;99.90;;;;;;6185276;23;20417;-86
2023/05/05 04:43:33;;;;;;;339.73;324.77;;;13.20;99.90;;;;;;6184653;23;20738;-87
2023/05/05 04:46:00;;;;;;;339.17;324.10;;;13.20;99.90;;;;;;6184387;23;20413;-86
2023/05/05 04:48:28;;;;;;;336.30;321.03;;;13.10;99.90;;;;;;6186212;23;20496;-85
2023/05/05 04:50:55;;;;;;;319.53;305.33;;;13.10;99.90;;;;;;6185400;23;20421;-85
2023/05/05 04:53:23;;;;;;;243.63;233.83;;;13.10;99.90;;;;;;6185073;23;20412;-85
2023/05/05 04:55:50;;;;;;;192.90;185.17;;;13.10;99.90;;;;;;6185168;23;20420;-84
2023/05/05 04:58:17;;;;;;;198.47;190.53;;;13.00;99.90;;;;;;6186224;23;20417;-84
2023/05/05 05:00:44;;;;;;;237.13;227.70;;;13.00;99.90;;;;;;6185845;23;20420;-85
2023/05/05 05:03:11;;;;;;;247.77;238.07;;;13.00;99.90;;;;;;6184539;23;20413;-85
2023/05/05 05:05:39;;;;;;;266.57;255.20;;;12.90;99.90;;;;;;6184540;23;20444;-84
2023/05/05 05:08:06;;;;;;;280.37;268.97;;;12.90;99.90;;;;;;6185764;23;20417;-84
2023/05/05 05:10:33;;;;;;;272.73;261.87;;;13.00;99.90;;;;;;6185948;23;20452;-84
2023/05/05 05:13:00;;;;;;;251.40;241.20;;;12.90;99.90;;;;;;6184484;23;20443;-84
2023/05/05 05:15:27;;;;;;;187.87;180.50;;;13.00;99.90;;;;;;6184788;23;20444;-84
2023/05/05 05:17:54;;;;;;;257.07;246.87;;;13.00;99.90;;;;;;6186070;23;20441;-83
2023/05/05 05:20:21;;;;;;;290.23;278.23;;;13.00;99.90;;;;;;6198647;23;20985;-83
2023/05/05 05:22:50;;;;;;;274.30;262.40;;;13.10;99.90;;;;;;6186248;23;20420;-83
2023/05/05 05:25:17;;;;;;;263.53;253.13;;;13.10;99.90;;;;;;6186915;23;20413;-84
2023/05/05 05:27:44;;;;;;;238.77;229.17;;;13.20;99.90;;;;;;6187527;23;20460;-84
2023/05/05 05:30:11;;;;;;;209.93;201.73;;;13.30;99.90;;;;;;6188079;23;20444;-84
2023/05/05 05:32:38;;;;;;;176.17;168.97;;;13.40;99.90;;;;;;6196229;23;21006;-84
2023/05/05 05:35:06;;;;;;;155.03;148.53;;;13.50;99.90;;;;;;6186906;23;20413;-84
2023/05/05 05:37:34;;;;;;;122.77;117.40;;;13.80;99.90;;;;;;6186918;23;20500;-83
2023/05/05 05:40:03;;;;;;;98.17;92.90;;;13.80;99.90;;;;;;6187686;23;20495;-84
2023/05/05 05:42:30;;;;;;;73.43;69.30;;;14.00;99.90;;;;;;6186188;23;20504;-83
2023/05/05 05:44:58;;;;;;;52.93;49.63;;;14.20;99.90;;;;;;6185668;23;20409;-83
2023/05/05 05:47:25;;;;;;;56.93;52.93;;;14.30;99.90;;;;;;6187206;23;20496;-83
2023/05/05 05:49:52;;;;;;;43.17;40.03;;;14.50;99.90;;;;;;6188164;23;20440;-83
2023/05/05 05:52:19;;;;;;;35.30;32.13;;;14.60;99.90;;;;;;6186272;23;20460;-83
2023/05/05 05:54:46;;;;;;;29.43;23.70;;;14.60;99.90;;;;;;6186535;23;20421;-83
2023/05/05 05:57:14;;;;;;;28.63;25.87;;;14.80;99.90;;;;;;6187042;23;20416;-83
2023/05/05 05:59:41;;;;;;;32.87;19.80;;;14.90;99.90;;;;;;6197429;23;20472;-84
2023/05/05 06:02:08;;;;;;;24.60;17.97;;;15.10;99.90;;;;;;6185511;23;20910;-83
2023/05/05 06:04:35;;;;;;;25.93;16.57;;;15.20;99.90;;;;;;6185919;23;20418;-84
2023/05/05 06:07:02;;;;;;;19.40;13.63;;;15.40;99.90;;;;;;6186796;23;20448;-84
2023/05/05 06:09:29;;;;;;;25.73;13.90;;;15.60;99.90;;;;;;6187923;23;20730;-84
2023/05/05 06:11:56;;;;;;;19.83;13.20;;;15.80;99.90;;;;;;6186571;23;20466;-84
2023/05/05 06:14:24;;;;;;;22.83;12.43;;;16.10;99.90;;;;;;6185900;23;20419;-84
2023/05/05 06:16:51;;;;;;;16.17;10.50;;;16.30;99.90;;;;;;6186813;23;20415;-83
2023/05/05 06:19:18;;;;;;;24.30;12.37;;;16.70;99.90;;;;;;6187396;23;20486;-84
2023/05/05 06:21:45;;;;;;;25.20;11.93;;;17.00;99.90;;;;;;6186719;23;20497;-84
2023/05/05 06:24:12;;;;;;;23.30;11.73;;;17.50;99.90;;;;;;6186329;23;20507;-84
2023/05/05 06:26:39;;;;;;;16.03;10.80;;;17.90;99.90;;;;;;6186680;23;20745;-84
2023/05/05 06:29:06;;;;;;;18.70;12.63;;;18.30;99.90;;;;;;6197261;23;20489;-84
2023/05/05 06:31:34;;;;;;;14.60;10.63;;;18.40;98.60;;;;;;6186331;23;20523;-84
2023/05/05 06:34:01;;;;;;;23.60;12.47;;;18.70;97.50;;;;;;6186256;23;20489;-84
2023/05/05 06:36:28;;;;;;;20.87;12.60;;;18.80;97.20;;;;;;6186430;23;20413;-83
2023/05/05 06:38:55;;;;;;;22.40;12.40;;;19.00;96.50;;;;;;6187698;23;20446;-84
2023/05/05 06:41:22;;;;;;;18.43;11.00;;;19.00;96.70;;;;;;6186290;23;20453;-84
2023/05/05 06:43:49;;;;;;;15.57;11.33;;;19.00;96.30;;;;;;6185602;23;20455;-84
2023/05/05 06:46:16;;;;;;;22.47;13.10;;;19.00;94.70;;;;;;6186840;23;20424;-84
2023/05/05 06:48:44;;;;;;;16.03;11.87;;;18.80;94.60;;;;;;6197168;23;20451;-84
2023/05/05 06:51:11;;;;;;;23.23;14.53;;;18.90;96.10;;;;;;6186458;23;20419;-84
2023/05/05 06:53:38;;;;;;;18.47;14.20;;;19.10;95.30;;;;;;6185419;23;20486;-84
2023/05/05 06:56:05;;;;;;;18.93;13.90;;;18.90;94.60;;;;;;6194961;23;20440;-84
2023/05/05 06:58:32;;;;;;;18.63;12.73;;;18.90;95.10;;;;;;6197149;23;20487;-84
2023/05/05 07:00:59;;;;;;;18.70;13.03;;;18.90;95.00;;;;;;6186727;23;20496;-86
2023/05/05 07:03:27;;;;;;;17.53;12.60;;;19.00;95.80;;;;;;6186223;23;20419;-85
2023/05/05 07:05:56;;;;;;;19.87;14.57;;;19.10;94.80;;;;;;6185616;23;20444;-83
2023/05/05 07:08:24;;;;;;;19.90;12.77;;;19.10;94.70;;;;;;6187124;23;20419;-83
2023/05/05 07:10:51;;;;;;;15.80;12.67;;;19.10;94.70;;;;;;6186699;23;20789;-84
2023/05/05 07:13:18;;;;;;;20.90;15.60;;;19.00;94.70;;;;;;6184967;23;20567;-84
2023/05/05 07:15:46;;;;;;;18.20;13.50;;;18.80;94.60;;;;;;6185945;23;20898;-84
2023/05/05 07:18:13;;;;;;;20.30;14.80;;;19.00;94.70;;;;;;6186934;23;20422;-84
2023/05/05 07:20:40;;;;;;;20.87;13.37;;;19.00;94.20;;;;;;6186825;23;20426;-84
2023/05/05 07:23:08;;;;;;;20.83;14.90;;;19.10;93.60;;;;;;6185992;23;20916;-84
2023/05/05 07:25:35;;;;;;;21.00;14.37;;;19.20;93.70;;;;;;6186196;23;20413;-85
2023/05/05 07:28:02;;;;;;;18.83;13.80;;;19.20;92.60;;;;;;6187258;23;20421;-85
2023/05/05 07:30:29;;;;;;;18.10;13.97;;;19.40;93.80;;;;;;6186620;23;20476;-84
2023/05/05 07:32:56;;;;;;;19.23;15.27;;;19.50;93.30;;;;;;6185834;23;20765;-84
2023/05/05 07:35:23;;;;;;;23.47;14.90;;;19.60;92.00;;;;;;6186005;23;20415;-84
2023/05/05 07:37:50;;;;;;;21.57;14.63;;;19.90;91.60;;;;;;6186336;23;20451;-84
2023/05/05 07:40:19;;;;;;;15.93;12.73;;;20.00;90.80;;;;;;6186735;23;20784;-84
2023/05/05 07:42:47;;;;;;;21.57;14.50;;;20.20;90.50;;;;;;6185355;23;20412;-84
2023/05/05 07:45:14;;;;;;;20.57;15.07;;;20.40;90.30;;;;;;6185887;23;20418;-85
2023/05/05 07:47:41;;;;;;;22.90;15.10;;;20.50;90.60;;;;;;6186434;23;20784;-84
2023/05/05 07:50:08;;;;;;;20.30;14.60;;;20.70;87.30;;;;;;6186801;23;20446;-84
2023/05/05 07:52:35;;;;;;;19.30;14.10;;;20.80;86.80;;;;;;6185406;23;20475;-84
2023/05/05 07:55:02;;;;;;;22.43;15.23;;;20.60;86.60;;;;;;6185875;23;20427;-84
2023/05/05 07:57:30;;;;;;;23.97;14.47;;;20.60;86.50;;;;;;6186529;23;20796;-84
2023/05/05 07:59:57;;;;;;;18.60;14.97;;;20.50;86.60;;;;;;6186478;23;20440;-84
2023/05/05 08:02:24;;;;;;;22.60;14.93;;;20.50;86.50;;;;;;6185899;23;20945;-84
2023/05/05 08:04:51;;;;;;;23.13;15.50;;;20.50;86.50;;;;;;6185389;23;20501;-84
2023/05/05 08:07:18;;;;;;;16.57;11.70;;;20.90;87.50;;;;;;6186257;23;20494;-84
2023/05/05 08:09:45;;;;;;;15.20;10.50;;;21.20;78.20;;;;;;6186293;23;20445;-84
2023/05/05 08:12:13;;;;;;;16.67;10.43;;;21.90;78.80;;;;;;6195400;23;20522;-84
2023/05/05 08:14:42;;;;;;;15.50;12.03;;;21.90;77.80;;;;;;6185344;23;20419;-84
2023/05/05 08:17:09;;;;;;;18.57;13.90;;;21.80;78.50;;;;;;6186139;23;20415;-85
2023/05/05 08:19:36;;;;;;;18.87;12.87;;;21.80;76.10;;;;;;6186706;23;20442;-84
2023/05/05 08:22:03;;;;;;;15.63;11.13;;;22.00;71.90;;;;;;6185860;23;20507;-84
2023/05/05 08:24:30;;;;;;;19.93;14.20;;;22.40;74.30;;;;;;6185276;23;20480;-84
2023/05/05 08:26:56;;;;;;;17.43;10.90;;;22.50;72.70;;;;;;6186048;23;20693;-84
2023/05/05 08:29:23;;;;;;;17.60;11.20;;;22.30;68.50;;;;;;6186232;23;20892;-84
2023/05/05 08:31:52;;;;;;;16.30;11.10;;;22.30;69.30;;;;;;6185333;23;20456;-84
2023/05/05 08:34:19;;;;;;;17.37;11.07;;;22.10;70.70;;;;;;6185431;23;20681;-84
2023/05/05 08:36:47;;;;;;;16.17;10.60;;;22.20;69.70;;;;;;6185367;23;20999;-84
2023/05/05 08:39:15;;;;;;;15.70;10.73;;;22.00;68.30;;;;;;6186554;23;20442;-84
2023/05/05 08:41:42;;;;;;;13.57;9.50;;;21.90;69.90;;;;;;6185677;23;20484;-84
2023/05/05 08:44:10;;;;;;;15.17;10.40;;;21.70;71.50;;;;;;6185258;23;20454;-85
2023/05/05 08:46:38;;;;;;;15.67;10.70;;;22.00;71.60;;;;;;6185789;23;20416;-84
2023/05/05 08:49:10;;;;;;;14.27;8.67;;;22.10;68.90;;;;;;6186074;23;20450;-85
2023/05/05 08:51:41;;;;;;;17.43;11.33;;;22.40;67.20;;;;;;6185611;23;20491;-85
2023/05/05 08:54:14;;;;;;;13.03;8.17;;;22.60;69.30;;;;;;6184584;23;20489;-84
2023/05/05 08:56:42;;;;;;;12.70;8.53;;;22.40;64.80;;;;;;6195319;23;20395;-84
2023/05/05 08:59:11;;;;;;;5.80;2.40;;;22.40;64.00;;;;;;6196595;23;20486;-84
2023/05/05 09:01:38;;;;;;;11.60;6.97;;;22.00;55.50;;;;;;6185260;23;20460;-85
2023/05/05 09:04:06;;;;;;;12.87;6.53;;;21.80;62.10;;;;;;6184939;23;20991;-84
2023/05/05 09:06:35;;;;;;;14.03;6.20;;;22.00;63.00;;;;;;6185469;23;20446;-85
2023/05/05 09:09:03;;;;;;;12.33;7.17;;;21.90;63.60;;;;;;6185889;23;20415;-84
2023/05/05 09:11:30;;;;;;;15.53;7.77;;;22.10;63.90;;;;;;6195463;23;20522;-85
2023/05/05 09:13:56;;;;;;;9.93;6.00;;;21.70;63.40;;;;;;6184948;23;20520;-84
2023/05/05 09:16:23;;;;;;;12.70;4.93;;;21.70;64.90;;;;;;6185243;23;20503;-85
2023/05/05 09:18:50;;;;;;;9.30;6.20;;;22.30;63.90;;;;;;6185862;23;20430;-85
2023/05/05 09:21:21;;;;;;;9.17;4.83;;;22.70;61.50;;;;;;6195375;23;20486;-84
2023/05/05 09:24:06;;;;;;;10.57;5.80;;;22.70;55.70;;;;;;6184940;23;20413;-85
2023/05/05 09:26:34;;;;;;;10.23;5.93;;;22.70;55.70;;;;;;6185073;23;20422;-85
2023/05/05 09:29:02;;;;;;;11.30;6.00;;;23.10;53.10;;;;;;6185941;23;20420;-85
2023/05/05 09:31:30;;;;;;;12.60;6.10;;;23.50;54.30;;;;;;6184941;23;20908;-85
2023/05/05 09:33:59;;;;;;;14.97;7.50;;;24.50;49.40;;;;;;6184854;23;20437;-84
2023/05/05 09:36:42;;;;;;;12.17;7.10;;;25.50;40.30;;;;;;6184846;23;20417;-85
2023/05/05 09:39:10;;;;;;;11.63;5.73;;;26.70;39.10;;;;;;6185804;23;20403;-85
2023/05/05 09:41:38;;;;;;;10.83;6.07;;;26.50;34.90;;;;;;6185008;23;20499;-85
2023/05/05 09:44:06;;;;;;;12.03;6.50;;;27.10;32.20;;;;;;6184642;23;20451;-85
2023/05/05 09:46:33;;;;;;;9.10;5.37;;;27.30;34.20;;;;;;6185114;23;20912;-85
2023/05/05 09:49:14;;;;;;;10.70;5.90;;;25.90;31.30;;;;;;6196147;23;20413;-85
2023/05/05 09:51:41;;;;;;;10.80;5.40;;;25.20;34.00;;;;;;6184817;23;20416;-85
2023/05/05 09:54:21;;;;;;;13.60;5.40;;;25.20;35.10;;;;;;6184061;23;20468;-85
2023/05/05 09:56:48;;;;;;;8.77;5.17;;;25.40;31.00;;;;;;6184772;23;20887;-85
2023/05/05 09:59:15;;;;;;;11.00;4.83;;;24.90;30.10;;;;;;6186330;23;20504;-85
2023/05/05 10:01:42;;;;;;;8.27;4.33;;;25.40;31.20;;;;;;6184857;23;20909;-85
2023/05/05 10:04:23;;;;;;;9.30;4.90;;;25.60;28.80;;;;;;6184321;23;20417;-85
2023/05/05 10:06:50;;;;;;;9.07;4.57;;;26.20;34.50;;;;;;6186535;23;20401;-85
2023/05/05 10:09:19;;;;;;;10.57;4.90;;;26.50;28.60;;;;;;6187988;23;20416;-85
2023/05/05 10:11:47;;;;;;;8.63;4.03;;;26.70;24.20;;;;;;6186452;23;20448;-85
2023/05/05 10:14:15;;;;;;;8.03;4.30;;;25.50;26.90;;;;;;6186381;23;20440;-85
2023/05/05 10:16:47;;;;;;;9.13;4.43;;;25.70;28.80;;;;;;6186322;23;20416;-85
2023/05/05 10:19:16;;;;;;;10.77;5.50;;;26.20;29.20;;;;;;6187555;23;20401;-85
2023/05/05 10:21:48;;;;;;;11.10;5.67;;;25.60;29.30;;;;;;6186948;23;20438;-85
2023/05/05 10:24:25;;;;;;;10.97;5.10;;;25.70;28.40;;;;;;6186357;23;20400;-85
2023/05/05 10:26:56;;;;;;;8.50;4.73;;;25.80;24.00;;;;;;6186742;23;20405;-85
2023/05/05 10:29:35;;;;;;;11.10;5.00;;;25.70;23.70;;;;;;6187444;23;20431;-85
2023/05/05 10:32:09;;;;;;;10.90;4.80;;;25.00;28.60;;;;;;6196237;23;20448;-85
2023/05/05 10:34:40;;;;;;;9.27;3.70;;;24.50;30.20;;;;;;6186272;23;20421;-85
2023/05/05 10:37:07;;;;;;;12.03;3.93;;;23.60;32.80;;;;;;6186693;23;20472;-85
2023/05/05 10:39:38;;;;;;;8.07;4.43;;;23.20;36.40;;;;;;6187256;23;20470;-85
2023/05/05 10:42:05;;;;;;;7.37;3.67;;;23.10;39.50;;;;;;6186636;23;20448;-85
2023/05/05 10:44:32;;;;;;;13.20;5.33;;;22.70;38.70;;;;;;6186346;23;20413;-85
2023/05/05 10:47:00;;;;;;;11.53;5.60;;;22.30;40.10;;;;;;6186868;23;20418;-84
2023/05/05 10:49:35;;;;;;;10.10;5.37;;;22.10;46.30;;;;;;6187451;23;20502;-84
2023/05/05 10:52:09;;;;;;;10.57;5.37;;;22.00;48.20;;;;;;6186480;23;20437;-84
2023/05/05 10:54:43;;;;;;;9.23;5.03;;;21.90;53.90;;;;;;6196020;23;20426;-84
2023/05/05 10:57:11;;;;;;;8.97;4.50;;;22.00;52.00;;;;;;6186919;23;20403;-84
2023/05/05 10:59:42;;;;;;;8.90;4.73;;;21.80;47.10;;;;;;6197163;23;20490;-84
2023/05/05 11:02:22;;;;;;;8.57;3.93;;;21.70;46.60;;;;;;6186409;23;20422;-84
2023/05/05 11:05:04;;;;;;;12.33;3.80;;;21.80;51.00;;;;;;6186484;23;20394;-85
2023/05/05 11:07:33;;;;;;;12.97;4.10;;;21.80;52.90;;;;;;6187100;23;20438;-85
2023/05/05 11:10:02;;;;;;;8.17;4.30;;;21.40;54.70;;;;;;6186887;23;20418;-85
2023/05/05 11:12:29;;;;;;;9.10;4.03;;;20.80;57.90;;;;;;6186186;23;20416;-84
2023/05/05 11:15:36;;;;;;;8.40;3.87;;;20.50;62.30;;;;;;6185645;23;20524;-84
2023/05/05 11:18:04;;;;;;;8.33;3.50;;;20.40;62.20;;;;;;6186833;23;20750;-85
2023/05/05 11:21:06;;;;;;;8.03;3.80;;;20.40;62.20;;;;;;6186607;23;20492;-84
2023/05/05 11:23:33;;;;;;;9.70;4.90;;;20.50;62.30;;;;;;6173546;23;20486;-85
2023/05/05 11:26:01;;;;;;;14.30;7.50;;;20.50;62.70;;;;;;6185659;23;20413;-85
2023/05/05 11:28:30;;;;;;;9.00;5.87;;;20.40;70.50;;;;;;6186957;23;20493;-85
2023/05/05 11:31:17;;;;;;;13.10;5.30;;;20.30;70.40;;;;;;6186394;23;20765;-85
2023/05/05 11:33:44;;;;;;;13.03;6.60;;;20.00;74.10;;;;;;6195489;23;20518;-85
2023/05/05 11:36:12;;;;;;;13.33;8.67;;;19.80;79.30;;;;;;6185909;23;20417;-84
2023/05/05 11:39:07;;;;;;;18.73;10.20;;;19.40;84.10;;;;;;6187091;23;20421;-84
2023/05/05 11:42:12;;;;;;;14.43;9.60;;;19.10;87.90;;;;;;6185961;23;20889;-84
2023/05/05 11:44:39;;;;;;;22.60;10.63;;;18.80;92.40;;;;;;6195617;23;20411;-83
2023/05/05 11:47:26;;;;;;;12.53;7.73;;;18.40;96.70;;;;;;6186191;23;20443;-83
2023/05/05 11:49:54;;;;;;;11.43;7.67;;;17.90;98.10;;;;;;6186899;23;20422;-83
2023/05/05 11:52:23;;;;;;;13.37;12.10;;;17.60;99.90;;;;;;6185913;23;20417;-83
2023/05/05 11:54:50;;;;;;;31.97;30.17;;;17.50;99.90;;;;;;6185503;23;20837;-83
2023/05/05 11:57:20;;;;;;;46.17;43.60;;;17.30;99.90;;;;;;6186221;23;20787;-83
2023/05/05 11:59:54;;;;;;;149.33;143.40;;;17.20;99.90;;;;;;6186528;23;20870;-83
2023/05/05 12:02:34;;;;;;;311.40;300.60;;;17.40;99.90;;;;;;6185406;23;20417;-83
2023/05/05 12:05:15;;;;;;;367.63;354.60;;;18.10;99.90;;;;;;6183821;23;20497;-83
2023/05/05 12:07:56;;;;;;;384.17;371.57;;;18.70;99.90;;;;;;6188757;23;20430;-83
2023/05/05 12:10:44;;;;;;;75.20;72.00;;;19.40;99.90;;;;;;6195963;23;20420;-84
2023/05/05 12:13:28;;;;;;;54.10;51.33;;;19.90;99.90;;;;;;6195350;23;20447;-83
2023/05/05 12:16:11;;;;;;;12.93;11.63;;;20.40;99.90;;;;;;6195137;23;20474;-84
2023/05/05 12:18:40;;;;;;;11.40;7.70;;;20.70;97.60;;;;;;6196425;23;20905;-84
2023/05/05 12:21:15;;;;;;;9.70;6.23;;;20.80;97.70;;;;;;6196008;23;20504;-84
2023/05/05 12:23:42;;;;;;;12.77;7.37;;;20.90;95.50;;;;;;6185452;23;20470;-84
2023/05/05 12:26:24;;;;;;;11.80;6.80;;;21.20;96.60;;;;;;6185692;23;20503;-85
2023/05/05 12:28:53;;;;;;;14.30;5.97;;;21.50;95.70;;;;;;6186642;23;20409;-85
2023/05/05 12:31:20;;;;;;;11.67;6.77;;;21.60;92.30;;;;;;6185664;23;20797;-85
2023/05/05 12:33:47;;;;;;;11.00;5.20;;;21.60;90.90;;;;;;6185343;23;20444;-85
2023/05/05 12:36:15;;;;;;;9.47;5.10;;;21.70;90.80;;;;;;6185074;23;20958;-85
2023/05/05 12:38:42;;;;;;;8.57;4.83;;;21.80;87.70;;;;;;6187112;23;20419;-85
2023/05/05 12:41:09;;;;;;;10.27;6.53;;;21.90;87.80;;;;;;6185501;23;20453;-85